Time;durP1;ratioP1;P1;durP2;ratioP2;P2;SDS_P1;SDS_P2;PMS_P1;PMS_P2;Temp;Humidity;BMP_temperature;BMP_pressure;BME280_temperature;BME280_humidity;BME280_pressure;Samples;Min_cycle;Max_cycle;Signal;HPM_P1;HPM_P2
2022/03/31 00:02:01;;;;;;;10.98;4.90;;;;;;;0.26;58.41;99571.48;739673;1153;115129;-72
2022/03/31 00:17:03;;;;;;;17.40;7.33;;;;;;;0.16;58.08;99567.78;740620;1153;114290;-73
2022/03/31 00:32:06;;;;;;;57.40;16.43;;;;;;;0.03;58.20;99556.47;739049;1155;115229;-71
2022/03/31 00:47:08;;;;;;;14.30;6.40;;;;;;;-0.12;58.07;99555.58;738851;1155;115431;-74
2022/03/31 01:02:12;;;;;;;48.93;16.80;;;;;;;-0.15;58.78;99548.02;738735;1153;115661;-73
2022/03/31 01:17:15;;;;;;;9.68;5.55;;;;;;;-0.19;59.31;99545.59;739608;1155;115597;-72
2022/03/31 01:32:18;;;;;;;5.43;3.10;;;;;;;-0.23;59.11;99549.27;738990;1155;115346;-72
2022/03/31 01:47:20;;;;;;;11.30;4.83;;;;;;;-0.27;59.47;99544.38;739291;1155;115515;-71
2022/03/31 02:02:22;;;;;;;21.98;9.38;;;;;;;-0.38;59.58;99529.50;739678;1155;115357;-73
2022/03/31 02:17:25;;;;;;;31.60;12.38;;;;;;;-0.49;59.50;99531.81;739815;1155;115326;-73
2022/03/31 02:32:27;;;;;;;18.35;7.00;;;;;;;-0.47;59.58;99527.42;739928;1155;115857;-72
2022/03/31 02:47:29;;;;;;;7.28;3.65;;;;;;;-0.34;58.44;99523.26;739169;1155;115374;-72
2022/03/31 03:02:32;;;;;;;9.95;4.65;;;;;;;-0.51;58.56;99527.58;738960;1155;115407;-71
2022/03/31 03:17:34;;;;;;;21.53;7.30;;;;;;;-0.66;58.68;99536.16;739390;1155;113938;-72
2022/03/31 03:32:38;;;;;;;59.70;24.90;;;;;;;-1.01;59.40;99542.22;739020;1154;115323;-74
2022/03/31 03:47:40;;;;;;;22.13;8.85;;;;;;;-1.14;59.71;99541.20;739504;1155;115506;-74
2022/03/31 04:02:42;;;;;;;45.90;11.90;;;;;;;-1.17;60.05;99542.19;740425;1153;115349;-75
2022/03/31 04:17:45;;;;;;;36.05;11.85;;;;;;;-1.14;60.85;99553.25;739221;1155;115875;-73
2022/03/31 04:32:48;;;;;;;98.27;24.47;;;;;;;-1.01;60.98;99555.09;739839;1155;115520;-73
2022/03/31 04:47:50;;;;;;;113.67;45.40;;;;;;;-0.95;60.24;99564.27;739546;1155;116304;-73
2022/03/31 05:02:52;;;;;;;123.65;59.30;;;;;;;-0.93;60.70;99569.33;743009;1155;116099;-73
2022/03/31 05:17:54;;;;;;;190.03;64.13;;;;;;;-0.46;61.38;99578.88;740854;1155;115002;-73
2022/03/31 05:32:58;;;;;;;88.40;32.00;;;;;;;0.01;60.73;99582.34;739793;1155;114526;-73
2022/03/31 05:48:00;;;;;;;25.17;9.60;;;;;;;0.39;60.46;99606.93;738809;1154;115385;-74
2022/03/31 06:03:03;;;;;;;23.53;8.03;;;;;;;0.80;60.90;99622.61;738865;1154;115584;-73
2022/03/31 06:18:06;;;;;;;15.90;7.83;;;;;;;0.96;60.77;99621.73;739488;1155;115235;-78
2022/03/31 06:33:09;;;;;;;29.58;13.38;;;;;;;1.49;60.76;99628.04;740248;1154;114977;-80
2022/03/31 06:48:12;;;;;;;30.03;11.27;;;;;;;2.46;59.51;99621.13;741080;1155;114789;-79
2022/03/31 07:03:15;;;;;;;36.23;13.20;;;;;;;3.70;58.93;99631.02;739451;1155;114201;-79
2022/03/31 07:18:17;;;;;;;13.60;8.57;;;;;;;4.25;54.71;99648.80;739957;1155;113996;-80
2022/03/31 07:33:21;;;;;;;6.40;3.68;;;;;;;4.88;50.84;99640.80;739447;1155;114224;-72
2022/03/31 07:48:23;;;;;;;7.98;3.30;;;;;;;5.47;48.66;99648.43;740520;1155;114133;-75
2022/03/31 08:03:26;;;;;;;7.10;4.10;;;;;;;6.34;47.63;99633.90;740635;1154;114450;-74
2022/03/31 08:18:33;;;;;;;11.80;6.55;;;;;;;7.34;44.58;99624.82;740186;1153;114278;-74
2022/03/31 08:33:36;;;;;;;8.10;4.30;;;;;;;7.68;42.87;99628.92;739790;1155;114737;-73
2022/03/31 08:48:38;;;;;;;7.60;3.45;;;;;;;7.49;37.75;99630.51;738948;1155;114493;-75
2022/03/31 09:03:41;;;;;;;5.73;3.38;;;;;;;8.33;38.15;99630.15;739732;1153;114366;-75
2022/03/31 09:18:43;;;;;;;10.23;5.03;;;;;;;9.03;38.84;99631.78;740358;1153;113955;-73
2022/03/31 09:33:54;;;;;;;11.85;3.98;;;;;;;9.79;36.74;99633.44;739746;1154;114873;-74
2022/03/31 09:48:57;;;;;;;11.03;5.53;;;;;;;10.55;37.10;99620.94;739499;1153;114649;-74
2022/03/31 10:04:00;;;;;;;6.88;2.93;;;;;;;10.54;35.62;99615.84;739994;1154;114189;-74
2022/03/31 10:19:03;;;;;;;11.90;4.48;;;;;;;11.79;35.73;99611.15;739331;1153;114195;-75
2022/03/31 10:34:07;;;;;;;3.60;2.53;;;;;;;11.48;34.34;99596.75;739456;1153;113900;-76
2022/03/31 10:49:13;;;;;;;17.48;6.75;;;;;;;11.60;34.69;99580.69;739367;1153;114059;-77
2022/03/31 11:04:15;;;;;;;6.13;2.20;;;;;;;11.82;33.63;99551.22;740050;1155;114432;-78
2022/03/31 11:19:20;;;;;;;9.80;5.23;;;;;;;12.19;33.37;99545.70;740137;1153;113721;-78
2022/03/31 11:34:28;;;;;;;;;;;;;;;12.17;31.70;99558.17;739948;1153;114030;-78
2022/03/31 11:49:40;;;;;;;5.10;2.98;;;;;;;13.07;32.25;99555.45;740362;1153;101435;-78
2022/03/31 12:04:45;;;;;;;15.03;4.95;;;;;;;13.84;33.00;99561.08;740033;1153;115854;-73
2022/03/31 12:19:47;;;;;;;5.05;2.80;;;;;;;12.64;30.12;99566.24;740158;1153;115003;-74
2022/03/31 12:34:55;;;;;;;6.37;3.57;;;;;;;14.08;31.68;99545.10;740786;1153;114309;-78
2022/03/31 12:49:57;;;;;;;12.20;5.85;;;;;;;14.26;31.65;99546.61;739626;1154;115286;-79
2022/03/31 13:05:00;;;;;;;9.25;4.10;;;;;;;13.82;30.30;99553.35;739590;1155;114045;-77
2022/03/31 13:20:03;;;;;;;12.93;5.40;;;;;;;14.05;30.70;99560.45;739588;1155;114782;-77
2022/03/31 13:35:06;;;;;;;8.45;3.75;;;;;;;13.66;31.65;99554.27;739886;1155;115375;-76
2022/03/31 13:50:10;;;;;;;20.43;9.13;;;;;;;12.31;31.04;99534.70;739952;1154;114356;-76
2022/03/31 14:05:13;;;;;;;16.90;6.85;;;;;;;12.13;31.56;99532.22;740269;1155;114714;-75
2022/03/31 14:20:16;;;;;;;18.10;7.88;;;;;;;11.90;31.96;99523.30;740328;1155;115635;-78
2022/03/31 14:35:19;;;;;;;16.90;7.55;;;;;;;11.52;31.88;99502.72;740005;1155;114749;-75
2022/03/31 14:50:21;;;;;;;23.47;9.63;;;;;;;11.60;32.25;99500.09;739521;1155;115433;-75
2022/03/31 15:05:24;;;;;;;13.60;7.10;;;;;;;12.09;32.52;99495.92;739639;1155;115497;-89
2022/03/31 15:20:27;;;;;;;14.93;7.53;;;;;;;11.89;31.42;99488.32;740754;1155;114039;-79
2022/03/31 15:35:30;;;;;;;35.80;12.77;;;;;;;10.16;32.12;99490.15;740714;1154;115574;-79
2022/03/31 15:50:33;;;;;;;37.13;14.50;;;;;;;9.23;33.07;99472.91;739274;1154;114117;-83
2022/03/31 16:05:36;;;;;;;125.00;38.43;;;;;;;8.42;33.31;99479.53;740043;1155;114621;-84
2022/03/31 16:20:43;;;;;;;81.58;30.68;;;;;;;7.81;33.92;99480.66;739671;1155;114719;-79
2022/03/31 16:35:46;;;;;;;20.70;9.97;;;;;;;7.32;33.95;99491.89;740137;1154;115189;-78
2022/03/31 16:50:50;;;;;;;24.28;11.35;;;;;;;6.82;35.52;99495.28;740121;1155;114040;-78
2022/03/31 17:05:53;;;;;;;57.48;22.30;;;;;;;6.34;35.99;99506.25;740973;1155;113944;-81
2022/03/31 17:20:56;;;;;;;63.38;25.03;;;;;;;6.04;35.94;99526.03;740137;1154;113840;-78
2022/03/31 17:35:59;;;;;;;43.00;16.70;;;;;;;5.68;36.11;99525.41;740296;1154;114713;-78
2022/03/31 17:51:01;;;;;;;25.85;11.48;;;;;;;5.38;36.93;99526.06;739859;1155;114961;-78
2022/03/31 18:06:04;;;;;;;25.05;10.90;;;;;;;5.20;36.18;99549.13;740327;1155;115309;-77
2022/03/31 18:21:06;;;;;;;36.00;16.10;;;;;;;5.09;36.13;99560.35;740958;1155;115359;-78
2022/03/31 18:36:09;;;;;;;54.43;20.75;;;;;;;4.92;36.81;99561.64;740795;1153;115570;-77
2022/03/31 18:51:12;;;;;;;126.67;42.37;;;;;;;4.75;36.61;99579.34;740687;1155;115493;-78
2022/03/31 19:21:36;;;;;;;41.43;16.20;;;;;;;4.50;37.16;99594.16;741497;1155;114050;-86
2022/03/31 19:36:39;;;;;;;29.00;10.75;;;;;;;4.33;37.60;99600.58;741473;1153;114063;-86
2022/03/31 19:51:43;;;;;;;72.50;25.45;;;;;;;4.18;37.95;99596.49;740461;1154;115481;-84
2022/03/31 20:06:47;;;;;;;61.10;21.08;;;;;;;4.16;37.20;99596.61;740228;1155;114676;-83
2022/03/31 20:21:52;;;;;;;23.80;8.98;;;;;;;3.97;37.93;99591.92;740573;1155;113964;-82
2022/03/31 20:36:54;;;;;;;33.48;13.10;;;;;;;3.90;38.25;99582.09;740319;1155;115379;-83
2022/03/31 20:51:58;;;;;;;26.68;9.98;;;;;;;3.66;38.21;99585.48;740548;1154;114315;-82
2022/03/31 21:07:00;;;;;;;17.25;5.88;;;;;;;3.65;39.17;99574.26;740630;1155;114599;-83
2022/03/31 21:22:07;;;;;;;13.10;5.23;;;;;;;3.50;39.60;99573.58;740437;1155;115250;-82
2022/03/31 21:37:11;;;;;;;46.75;16.13;;;;;;;3.42;39.80;99573.30;739896;1155;115350;-83
2022/03/31 21:52:19;;;;;;;49.60;14.68;;;;;;;3.34;39.02;99562.63;739750;1154;115668;-84
2022/03/31 22:07:22;;;;;;;8.10;4.35;;;;;;;3.33;39.12;99559.19;740048;1155;113980;-83
2022/03/31 22:22:24;;;;;;;9.87;3.87;;;;;;;3.31;39.66;99544.67;739545;1155;113658;-82
2022/03/31 22:37:26;;;;;;;8.98;3.83;;;;;;;3.26;38.90;99520.83;740091;1155;114164;-83
2022/03/31 22:52:28;;;;;;;7.88;3.48;;;;;;;3.19;38.89;99524.80;739165;1153;114192;-84
2022/03/31 23:07:32;;;;;;;5.63;3.30;;;;;;;3.06;39.01;99509.27;739218;1155;114860;-83
2022/03/31 23:22:34;;;;;;;6.00;3.53;;;;;;;3.04;39.19;99499.01;739593;1153;114067;-83
2022/03/31 23:37:36;;;;;;;12.68;6.53;;;;;;;3.07;39.03;99490.20;740022;1153;115047;-82
2022/03/31 23:52:38;;;;;;;5.10;2.98;;;;;;;3.02;39.40;99481.91;738931;1153;115349;-83
